Main page


Airports :

Albert, France

Albert – Picardie Airport

latitude: 49-58-21N, longitude: 002-41-29E, elevation: 111 m

METAR: missing

Time: 18:41 (17:41 UTC)


The report was made 3 hours and 41 minutes ago, at 14:00 UTC
Forecast valid from 20 at 15 UTC to 20 at 24 UTC
Wind 17 kt from the North/Northeast with gusts up to 27 kt
Visibility 10 km or more
Scattered clouds at a height of 3500 ft
from 20 at 16 UTC to 20 at 19 UTC
Wind 10 kt from the North

TAF: LFAQ 201400Z 2015/2024 02017G27KT 9999 SCT035 BECMG 2016/2019 01010KT

Weather observations and forecasts of more than 4000 airports (METAR and TAF reports).

The available stations are represented by yellow and red dots on the map.

Hover mouse over dot to see the name of the station.

Then click to see weather observations and forecasts.

To change the map : click on the green buttons with a black cross to zoom in, on the green button with a dash to zoom out, or on the green arrows for adjacent maps.